Time;durP1;ratioP1;P1;durP2;ratioP2;P2;SDS_P1;SDS_P2;PMS_P1;PMS_P2;Temp;Humidity;BMP_temperature;BMP_pressure;BME280_temperature;BME280_humidity;BME280_pressure;Samples;Min_cycle;Max_cycle;Signal;HPM_P1;HPM_P2
2021/12/18 00:00:12;;;;;;;28.70;15.25;;;;;;;6.47;99.70;103860.38;5106793;28;20085;-89
2021/12/18 00:02:38;;;;;;;27.33;14.13;;;;;;;6.45;99.44;103858.59;5097345;28;20052;-89
2021/12/18 00:05:03;;;;;;;24.63;13.60;;;;;;;6.46;99.47;103869.19;5089779;28;20097;-89
2021/12/18 00:07:29;;;;;;;24.85;13.32;;;;;;;6.43;99.68;103855.91;5102860;28;20049;-88
2021/12/18 00:09:54;;;;;;;27.02;13.95;;;;;;;6.46;99.72;103861.25;5090288;28;20305;-89
2021/12/18 00:12:19;;;;;;;28.63;14.82;;;;;;;6.46;99.61;103858.59;5089677;28;20046;-88
2021/12/18 00:14:45;;;;;;;27.15;13.88;;;;;;;6.44;99.52;103855.06;5088825;28;20028;-89
2021/12/18 00:17:10;;;;;;;26.98;13.85;;;;;;;6.46;99.54;103852.44;5102480;28;20035;-89
2021/12/18 00:19:35;;;;;;;29.98;14.75;;;;;;;6.45;99.77;103856.84;5104333;28;20102;-89
2021/12/18 00:22:01;;;;;;;25.48;13.88;;;;;;;6.43;99.79;103847.09;5099857;28;20035;-89
2021/12/18 00:24:27;;;;;;;27.33;14.95;;;;;;;6.46;99.94;103857.72;5101964;28;20020;-89
2021/12/18 00:26:53;;;;;;;29.63;14.75;;;;;;;6.45;100.00;103851.53;5091908;28;20030;-89
2021/12/18 00:29:19;;;;;;;26.67;13.52;;;;;;;6.39;100.00;103838.22;5109234;28;20030;-89
2021/12/18 00:31:44;;;;;;;26.13;14.00;;;;;;;6.46;100.00;103845.38;5097129;28;20099;-90
2021/12/18 00:34:09;;;;;;;27.60;14.07;;;;;;;6.42;100.00;103838.25;5098435;28;20359;-89
2021/12/18 00:36:34;;;;;;;26.85;14.85;;;;;;;6.43;100.00;103832.09;5092295;28;20106;-89
2021/12/18 00:39:00;;;;;;;28.08;14.93;;;;;;;6.42;100.00;103832.09;5098951;28;20039;-89
2021/12/18 00:41:47;;;;;;;27.17;14.85;;;;;;;6.46;100.00;103842.72;5102738;28;20204;-89
2021/12/18 00:44:14;;;;;;;25.52;14.35;;;;;;;6.45;100.00;103832.13;5106085;28;20028;-89
2021/12/18 00:46:43;;;;;;;25.63;14.52;;;;;;;6.46;100.00;103832.16;5100267;28;20024;-89
2021/12/18 00:49:11;;;;;;;25.60;13.98;;;;;;;6.46;100.00;103833.91;5088410;28;20028;-89
2021/12/18 00:51:36;;;;;;;28.98;13.98;;;;;;;6.45;100.00;103838.31;5092888;28;20085;-88
2021/12/18 00:54:02;;;;;;;28.63;14.13;;;;;;;6.46;100.00;103829.50;5106316;28;20050;-89
2021/12/18 00:56:27;;;;;;;29.45;15.25;;;;;;;6.43;100.00;103832.09;5109249;28;20036;-89
2021/12/18 00:58:53;;;;;;;27.88;14.82;;;;;;;6.45;100.00;103833.03;5092239;28;20020;-89
2021/12/18 01:01:21;;;;;;;27.02;15.05;;;;;;;6.46;100.00;103831.25;5097613;28;20085;-88
2021/12/18 01:03:48;;;;;;;26.90;14.02;;;;;;;6.46;100.00;103832.16;5109285;28;20031;-89
2021/12/18 01:06:20;;;;;;;27.85;14.45;;;;;;;6.45;100.00;103819.78;5105817;28;20056;-90
2021/12/18 01:08:47;;;;;;;27.65;15.20;;;;;;;6.44;100.00;103818.03;5088683;28;20020;-90
2021/12/18 01:11:30;;;;;;;28.38;14.75;;;;;;;6.48;100.00;103824.25;5099212;28;20028;-90
2021/12/18 01:14:18;;;;;;;30.15;14.98;;;;;;;6.47;100.00;103822.44;5106330;28;20080;-89
2021/12/18 01:24:31;;;;;;;28.63;15.65;;;;;;;6.46;100.00;103813.63;5107341;28;20419;-90
2021/12/18 01:26:56;;;;;;;30.23;14.73;;;;;;;6.46;100.00;103815.38;5089775;28;20396;-89
2021/12/18 01:29:21;;;;;;;29.55;16.08;;;;;;;6.47;100.00;103814.50;5105822;28;20034;-90
2021/12/18 01:31:46;;;;;;;28.60;15.88;;;;;;;6.46;100.00;103810.97;5096002;28;20027;-89
2021/12/18 01:34:12;;;;;;;29.92;15.65;;;;;;;6.47;100.00;103815.41;5109936;28;20531;-89
2021/12/18 01:36:37;;;;;;;33.03;17.08;;;;;;;6.47;100.00;103815.41;5107300;28;20029;-89
2021/12/18 01:39:04;;;;;;;33.05;17.00;;;;;;;6.46;100.00;103818.03;5107854;28;20460;-90
2021/12/18 01:41:37;;;;;;;35.58;16.70;;;;;;;6.46;100.00;103821.56;5107508;28;20034;-89
2021/12/18 01:52:32;;;;;;;;;;;;;;;6.52;100.00;103825.16;5043433;28;20044;-89
2021/12/18 01:54:57;;;;;;;29.67;15.95;;;;;;;6.46;100.00;103825.97;5043376;28;20002;-89
2021/12/18 01:57:23;;;;;;;33.38;16.48;;;;;;;6.46;100.00;103829.50;5044809;28;20513;-89
2021/12/18 01:59:48;;;;;;;33.78;16.65;;;;;;;6.47;100.00;103836.56;5028642;28;20029;-89
2021/12/18 02:02:15;;;;;;;34.17;17.33;;;;;;;6.46;100.00;103834.78;5043719;28;20128;-89
2021/12/18 02:04:40;;;;;;;33.67;17.00;;;;;;;6.46;100.00;103839.19;5043169;28;20578;-89
2021/12/18 02:07:07;;;;;;;32.22;16.50;;;;;;;6.45;100.00;103833.03;5027045;28;20033;-89
2021/12/18 02:09:56;;;;;;;33.40;17.17;;;;;;;6.45;100.00;103832.13;5043656;28;20112;-89
2021/12/18 02:12:26;;;;;;;36.42;16.05;;;;;;;6.45;100.00;103825.09;5041734;28;20304;-89
2021/12/18 02:20:38;;;;;;;37.58;17.40;;;;;;;6.47;100.00;103833.03;5044562;28;20572;-88
2021/12/18 02:23:05;;;;;;;38.45;17.23;;;;;;;6.41;100.00;103825.03;5038162;28;20047;-88
2021/12/18 02:25:33;;;;;;;35.15;17.13;;;;;;;6.44;100.00;103823.31;5107814;28;20159;-89
2021/12/18 02:27:59;;;;;;;39.10;18.48;;;;;;;6.43;100.00;103824.16;5106111;28;20071;-88
2021/12/18 02:30:25;;;;;;;37.20;16.77;;;;;;;6.44;100.00;103825.97;5089119;28;20070;-90
2021/12/18 02:32:51;;;;;;;36.55;17.63;;;;;;;6.39;100.00;103814.41;5087228;28;20038;-89
2021/12/18 02:35:29;;;;;;;34.72;17.42;;;;;;;6.42;100.00;103821.50;5107352;28;20023;-89
2021/12/18 02:38:15;;;;;;;38.83;16.90;;;;;;;6.40;100.00;103824.13;5107491;28;20028;-89
2021/12/18 02:43:09;;;;;;;35.05;17.02;;;;;;;6.36;100.00;103817.03;5105062;28;20415;-89
2021/12/18 02:45:35;;;;;;;32.78;17.27;;;;;;;6.32;100.00;103801.97;5106600;28;20032;-89
2021/12/18 02:48:00;;;;;;;35.97;17.48;;;;;;;6.37;100.00;103818.78;5107359;28;20031;-88
2021/12/18 02:50:25;;;;;;;36.95;17.92;;;;;;;6.32;100.00;103804.63;5107563;28;20035;-88
2021/12/18 02:52:50;;;;;;;35.83;17.00;;;;;;;6.35;100.00;103812.56;5106795;28;20563;-89
2021/12/18 02:55:16;;;;;;;35.00;16.30;;;;;;;6.34;100.00;103808.16;5111001;28;20024;-89
2021/12/18 02:57:41;;;;;;;36.10;16.30;;;;;;;6.32;100.00;103806.38;5092647;28;20020;-88
2021/12/18 03:00:07;;;;;;;33.90;16.55;;;;;;;6.35;100.00;103801.09;5088914;28;20032;-89
2021/12/18 03:02:37;;;;;;;35.60;16.80;;;;;;;6.31;100.00;103802.84;5091355;28;20047;-89
2021/12/18 03:05:07;;;;;;;37.28;16.65;;;;;;;6.25;100.00;103792.16;5090086;28;20085;-89
2021/12/18 03:07:32;;;;;;;33.97;15.38;;;;;;;6.29;100.00;103812.50;5093944;28;20031;-88
2021/12/18 03:23:39;;;;;;;32.00;15.38;;;;;;;6.17;100.00;103784.13;5094943;28;20116;-88
2021/12/18 03:26:05;;;;;;;27.77;14.20;;;;;;;6.21;100.00;103793.00;5095589;28;20471;-88
2021/12/18 03:28:30;;;;;;;30.35;14.98;;;;;;;6.16;100.00;103778.81;5104272;28;20028;-88
2021/12/18 03:30:56;;;;;;;29.17;15.05;;;;;;;6.16;100.00;103782.34;5090114;28;20057;-88
2021/12/18 03:33:23;;;;;;;30.00;13.68;;;;;;;6.19;100.00;103785.03;5096119;28;20441;-89
2021/12/18 03:35:49;;;;;;;33.03;14.68;;;;;;;6.19;100.00;103790.34;5097602;28;20028;-88
2021/12/18 03:38:14;;;;;;;32.17;14.75;;;;;;;6.19;100.00;103784.16;5094014;28;20119;-88
2021/12/18 03:40:40;;;;;;;27.02;14.20;;;;;;;6.19;100.00;103776.22;5090207;28;20016;-88
2021/12/18 03:43:05;;;;;;;29.17;14.23;;;;;;;6.18;100.00;103790.28;5089208;28;20093;-88
2021/12/18 03:45:30;;;;;;;27.15;13.35;;;;;;;6.19;100.00;103784.16;5090039;28;20036;-88
2021/12/18 03:47:56;;;;;;;29.38;14.38;;;;;;;6.15;100.00;103782.34;5089524;28;20034;-88
2021/12/18 03:50:22;;;;;;;28.55;13.77;;;;;;;6.18;100.00;103782.34;5092984;28;20222;-89
2021/12/18 03:52:48;;;;;;;27.80;13.65;;;;;;;6.15;100.00;103791.16;5096515;28;20021;-88
2021/12/18 03:55:15;;;;;;;30.33;14.73;;;;;;;6.16;100.00;103790.28;5089451;28;20441;-89
2021/12/18 03:57:40;;;;;;;29.52;14.63;;;;;;;6.19;100.00;103797.38;5089863;28;20086;-88
2021/12/18 04:00:08;;;;;;;30.38;15.13;;;;;;;6.18;100.00;103801.75;5089376;28;20501;-89
2021/12/18 04:02:33;;;;;;;27.63;13.68;;;;;;;6.16;100.00;103794.69;5091686;28;20052;-87
2021/12/18 04:04:59;;;;;;;27.73;14.38;;;;;;;6.19;100.00;103797.38;5108566;28;20461;-88
2021/12/18 04:07:24;;;;;;;28.33;14.60;;;;;;;6.18;100.00;103799.09;5101175;28;20024;-88
2021/12/18 04:09:50;;;;;;;31.75;14.70;;;;;;;6.19;100.00;103787.69;5072667;28;20483;-89
2021/12/18 04:12:16;;;;;;;33.40;15.57;;;;;;;6.20;100.00;103793.88;5088935;28;20032;-89
2021/12/18 04:14:41;;;;;;;29.08;13.77;;;;;;;6.20;100.00;103792.09;5089377;28;20032;-89
2021/12/18 04:17:06;;;;;;;28.02;14.88;;;;;;;6.21;100.00;103798.28;5094563;28;20380;-88
2021/12/18 04:19:32;;;;;;;28.90;14.27;;;;;;;6.19;100.00;103797.38;5109885;28;20034;-88
2021/12/18 04:21:57;;;;;;;30.02;14.57;;;;;;;6.20;100.00;103793.88;5087846;28;20028;-89
2021/12/18 04:24:23;;;;;;;30.38;14.38;;;;;;;6.23;100.00;103801.84;5088472;28;20672;-88
2021/12/18 04:26:49;;;;;;;29.10;14.50;;;;;;;6.19;100.00;103800.03;5088978;28;20036;-88
2021/12/18 04:29:14;;;;;;;29.88;15.20;;;;;;;6.22;100.00;103798.28;5096491;28;20437;-87
2021/12/18 04:31:39;;;;;;;29.92;15.13;;;;;;;6.21;100.00;103798.28;5088887;28;20035;-88
2021/12/18 04:34:06;;;;;;;29.40;14.57;;;;;;;6.22;100.00;103800.03;5088025;28;20020;-88
2021/12/18 04:36:32;;;;;;;28.98;14.65;;;;;;;6.22;100.00;103800.03;5089311;28;20028;-88
2021/12/18 04:38:58;;;;;;;29.08;14.98;;;;;;;6.20;100.00;103800.03;5107558;28;20035;-89
2021/12/18 04:41:35;;;;;;;24.92;13.32;;;;;;;6.22;100.00;103797.41;5099593;28;20027;-89
2021/12/18 04:44:02;;;;;;;30.00;14.65;;;;;;;6.19;100.00;103792.09;5088751;28;20032;-89
2021/12/18 04:46:28;;;;;;;28.67;14.73;;;;;;;6.22;100.00;103800.03;5090697;28;20484;-90
2021/12/18 04:48:53;;;;;;;27.55;14.38;;;;;;;6.22;100.00;103806.22;5104818;28;20059;-90
2021/12/18 04:51:19;;;;;;;32.00;14.77;;;;;;;6.22;100.00;103802.69;5108592;28;20054;-89
2021/12/18 04:53:44;;;;;;;30.17;14.63;;;;;;;6.19;100.00;103792.09;5094135;28;20035;-90
2021/12/18 04:56:09;;;;;;;34.05;15.38;;;;;;;6.21;100.00;103798.28;5103989;28;20035;-89
2021/12/18 04:58:34;;;;;;;29.83;14.73;;;;;;;6.22;100.00;103800.94;5089718;28;20069;-90
2021/12/18 05:01:00;;;;;;;30.48;14.00;;;;;;;6.17;100.00;103794.69;5088333;28;20054;-89
2021/12/18 05:03:25;;;;;;;33.05;15.38;;;;;;;6.22;100.00;103794.75;5105926;28;20043;-89
2021/12/18 05:05:51;;;;;;;29.77;14.80;;;;;;;6.21;100.00;103803.56;5108398;28;20503;-90
2021/12/18 05:08:16;;;;;;;31.27;14.95;;;;;;;6.21;100.00;103801.81;5107906;28;20040;-89
2021/12/18 05:10:41;;;;;;;33.70;15.25;;;;;;;6.21;100.00;103803.56;5109071;28;20397;-89
2021/12/18 05:13:06;;;;;;;30.60;15.48;;;;;;;6.20;100.00;103800.03;5104778;28;20427;-89
2021/12/18 05:15:32;;;;;;;32.38;15.45;;;;;;;6.15;100.00;103792.91;5108142;28;20030;-89
2021/12/18 05:17:58;;;;;;;35.90;16.35;;;;;;;6.21;100.00;103803.56;5107189;28;20027;-89
2021/12/18 05:20:24;;;;;;;32.45;15.55;;;;;;;6.20;100.00;103802.69;5108464;28;20423;-89
2021/12/18 05:22:49;;;;;;;35.85;15.52;;;;;;;6.18;100.00;103807.03;5105821;28;20026;-89
2021/12/18 05:25:14;;;;;;;33.17;15.13;;;;;;;6.21;100.00;103816.78;5107524;28;20480;-88
2021/12/18 05:27:40;;;;;;;31.70;15.63;;;;;;;6.15;100.00;103811.44;5108366;28;20119;-89
2021/12/18 05:30:08;;;;;;;29.85;14.80;;;;;;;6.15;100.00;103808.78;5107010;28;20027;-89
2021/12/18 05:32:33;;;;;;;33.80;15.07;;;;;;;6.14;100.00;103812.25;5105908;28;20031;-89
2021/12/18 05:34:59;;;;;;;28.30;13.95;;;;;;;6.12;100.00;103808.72;5107951;28;20084;-88
2021/12/18 05:40:08;;;;;;;29.17;13.88;;;;;;;6.13;100.00;103818.44;5097564;28;20042;-89
2021/12/18 05:42:33;;;;;;;30.60;14.45;;;;;;;6.10;100.00;103813.09;5107299;28;20028;-89
2021/12/18 05:44:59;;;;;;;30.98;14.20;;;;;;;6.10;100.00;103815.72;5107183;28;20469;-89
2021/12/18 05:47:24;;;;;;;35.10;13.68;;;;;;;6.09;100.00;103816.59;5106045;28;20067;-89
2021/12/18 05:49:49;;;;;;;31.40;13.65;;;;;;;6.05;100.00;103810.38;5108144;28;20028;-90
2021/12/18 05:52:15;;;;;;;30.58;13.98;;;;;;;6.04;100.00;103810.38;5105080;28;20460;-89
2021/12/18 05:54:40;;;;;;;33.42;14.30;;;;;;;6.00;100.00;103809.41;5108530;28;20050;-89
2021/12/18 05:57:07;;;;;;;31.60;13.73;;;;;;;5.94;100.00;103804.94;5107753;28;20418;-89
2021/12/18 05:59:33;;;;;;;31.05;13.73;;;;;;;5.97;100.00;103817.28;5107633;28;20484;-90
2021/12/18 06:01:59;;;;;;;31.73;13.93;;;;;;;5.94;100.00;103817.28;5097888;28;20500;-89
2021/12/18 06:04:24;;;;;;;33.28;14.52;;;;;;;5.97;100.00;103830.50;5104682;28;20270;-89
2021/12/18 06:06:50;;;;;;;32.65;13.38;;;;;;;5.95;100.00;103808.47;5105054;28;20530;-89
2021/12/18 06:09:16;;;;;;;32.28;13.52;;;;;;;5.94;100.00;103812.88;5103504;28;20065;-90
2021/12/18 06:11:42;;;;;;;29.60;13.70;;;;;;;5.92;100.00;103811.94;5096650;28;20081;-89
2021/12/18 06:14:07;;;;;;;28.52;12.23;;;;;;;5.94;100.00;103820.81;5104311;28;20055;-89
2021/12/18 06:16:33;;;;;;;31.25;13.07;;;;;;;5.91;100.00;103814.53;5106810;28;20494;-89
2021/12/18 06:18:58;;;;;;;27.30;12.18;;;;;;;5.91;100.00;103811.91;5092780;28;20101;-89
2021/12/18 06:21:23;;;;;;;25.75;11.77;;;;;;;5.92;100.00;103821.63;5087968;28;20095;-89
2021/12/18 06:23:52;;;;;;;24.55;10.77;;;;;;;5.91;100.00;103822.47;5099576;28;20020;-90
2021/12/18 06:26:19;;;;;;;20.73;9.73;;;;;;;5.89;100.00;103829.47;5091104;28;20114;-89
2021/12/18 06:28:44;;;;;;;18.80;9.45;;;;;;;5.86;100.00;103824.16;5100402;28;20036;-88
2021/12/18 06:31:10;;;;;;;17.40;9.02;;;;;;;5.84;100.00;103820.56;5090991;28;20218;-91
2021/12/18 06:33:35;;;;;;;18.67;7.85;;;;;;;5.83;100.00;103821.44;5106187;28;20036;-90
2021/12/18 06:36:01;;;;;;;18.30;9.00;;;;;;;5.78;100.00;103815.22;5111368;28;20380;-89
2021/12/18 06:38:26;;;;;;;19.25;9.07;;;;;;;5.81;100.00;103826.72;5100027;28;20100;-90
2021/12/18 06:40:52;;;;;;;21.58;9.32;;;;;;;5.82;100.00;103825.84;5094719;28;20468;-89
2021/12/18 06:43:17;;;;;;;25.23;10.18;;;;;;;5.83;100.00;103821.44;5104170;28;20035;-89
2021/12/18 06:45:42;;;;;;;21.75;9.63;;;;;;;5.83;100.00;103824.97;5110946;28;20039;-89
2021/12/18 06:48:08;;;;;;;21.60;9.65;;;;;;;5.85;100.00;103823.28;5108196;28;20060;-89
2021/12/18 06:50:35;;;;;;;22.85;9.45;;;;;;;5.83;100.00;103822.34;5090812;28;20052;-88
2021/12/18 06:53:00;;;;;;;19.67;8.70;;;;;;;5.81;100.00;103824.09;5084618;28;20465;-89
2021/12/18 06:55:26;;;;;;;16.25;8.25;;;;;;;5.79;100.00;103820.50;5091262;28;20051;-89
2021/12/18 06:57:51;;;;;;;15.10;7.38;;;;;;;5.79;100.00;103816.97;5091599;28;20028;-88
2021/12/18 07:00:18;;;;;;;16.25;7.60;;;;;;;5.77;100.00;103822.25;5092191;28;20246;-87
2021/12/18 07:02:44;;;;;;;15.80;7.00;;;;;;;5.75;100.00;103816.03;5104928;28;20042;-89
2021/12/18 07:05:10;;;;;;;16.27;6.97;;;;;;;5.74;100.00;103815.16;5097890;28;20028;-88
2021/12/18 07:07:36;;;;;;;14.13;6.43;;;;;;;5.72;100.00;103808.03;5092742;28;20024;-90
2021/12/18 07:10:04;;;;;;;16.50;7.32;;;;;;;5.76;100.00;103809.88;5110125;28;20171;-88
2021/12/18 07:12:29;;;;;;;14.27;6.20;;;;;;;5.72;100.00;103806.28;5096810;28;20027;-91
2021/12/18 07:14:55;;;;;;;11.73;5.68;;;;;;;5.74;100.00;103808.97;5090789;28;20027;-89
2021/12/18 07:17:20;;;;;;;13.60;5.88;;;;;;;5.69;100.00;103808.91;5095523;28;20348;-91
2021/12/18 07:19:45;;;;;;;12.43;5.88;;;;;;;5.69;100.00;103803.63;5090567;28;20028;-89
2021/12/18 07:22:10;;;;;;;13.25;5.70;;;;;;;5.75;100.00;103814.28;5100872;28;20165;-91
2021/12/18 07:24:36;;;;;;;13.43;5.57;;;;;;;5.74;100.00;103814.25;5097834;28;20181;-91
2021/12/18 07:27:01;;;;;;;13.20;5.97;;;;;;;5.76;100.00;103817.81;5098389;28;20254;-91
2021/12/18 07:29:27;;;;;;;15.73;6.03;;;;;;;5.74;100.00;103809.88;5097422;28;20042;-91
2021/12/18 07:31:52;;;;;;;15.27;6.40;;;;;;;5.72;100.00;103803.66;5103679;28;20024;-91
2021/12/18 07:34:18;;;;;;;15.50;6.65;;;;;;;5.80;100.00;103810.81;5098732;28;20109;-91
2021/12/18 07:36:44;;;;;;;15.20;6.68;;;;;;;5.78;100.00;103804.63;5090710;28;20071;-92
2021/12/18 07:39:09;;;;;;;15.75;6.38;;;;;;;5.80;100.00;103809.06;5090696;28;20378;-90
2021/12/18 07:41:34;;;;;;;14.73;6.60;;;;;;;5.78;100.00;103802.88;5093842;28;20406;-92
2021/12/18 07:44:00;;;;;;;14.52;7.43;;;;;;;5.84;100.00;103815.28;5105058;28;20485;-91
2021/12/18 07:46:25;;;;;;;15.00;7.07;;;;;;;5.85;100.00;103814.41;5098998;28;20369;-91
2021/12/18 07:48:50;;;;;;;12.18;6.28;;;;;;;5.87;100.00;103815.34;5106974;28;20031;-91
2021/12/18 07:51:16;;;;;;;18.15;7.80;;;;;;;5.84;100.00;103815.28;5100665;28;20107;-91
2021/12/18 07:53:41;;;;;;;15.93;6.88;;;;;;;5.89;100.00;103816.25;5082798;28;20486;-90
2021/12/18 07:56:09;;;;;;;17.63;7.40;;;;;;;5.89;100.00;103819.78;5099638;28;20015;-91
2021/12/18 07:58:35;;;;;;;17.58;7.70;;;;;;;5.89;100.00;103821.53;5097568;28;20028;-92
2021/12/18 08:01:01;;;;;;;14.30;7.00;;;;;;;5.85;100.00;103820.63;5099005;28;20031;-91
2021/12/18 08:03:26;;;;;;;15.48;6.93;;;;;;;5.88;100.00;103825.94;5094214;28;20115;-92
2021/12/18 08:05:51;;;;;;;13.07;6.32;;;;;;;5.89;100.00;103824.19;5103337;28;20061;-89
2021/12/18 08:08:17;;;;;;;12.55;5.85;;;;;;;5.90;100.00;103812.75;5101771;28;20027;-87
2021/12/18 08:10:42;;;;;;;11.65;6.00;;;;;;;5.90;100.00;103823.34;5109970;28;20394;-89
2021/12/18 08:13:07;;;;;;;13.93;6.10;;;;;;;5.87;100.00;103821.53;5093406;28;20031;-88
2021/12/18 08:15:33;;;;;;;9.90;5.30;;;;;;;5.88;100.00;103823.28;5110025;28;20081;-88
2021/12/18 08:17:58;;;;;;;13.63;5.50;;;;;;;5.88;100.00;103823.28;5091285;28;20028;-87
2021/12/18 08:20:25;;;;;;;9.48;4.45;;;;;;;5.92;100.00;103830.44;5109596;28;20108;-87
2021/12/18 08:22:50;;;;;;;10.18;4.82;;;;;;;5.93;100.00;103819.00;5092783;28;21537;-87
2021/12/18 08:25:16;;;;;;;10.90;4.88;;;;;;;5.90;100.00;103818.06;5088893;28;20028;-87
2021/12/18 08:27:41;;;;;;;10.20;4.78;;;;;;;5.92;100.00;103822.50;5088583;28;20028;-87
2021/12/18 08:30:08;;;;;;;11.40;5.88;;;;;;;5.91;100.00;103820.72;5107350;28;20062;-88
2021/12/18 08:32:33;;;;;;;11.57;5.10;;;;;;;5.93;100.00;103826.94;5095159;28;20027;-88
2021/12/18 08:34:58;;;;;;;9.60;4.90;;;;;;;5.88;100.00;103814.47;5099295;28;20349;-88
2021/12/18 08:37:24;;;;;;;10.90;5.05;;;;;;;5.97;100.00;103815.53;5109369;28;20019;-88
2021/12/18 08:39:49;;;;;;;10.55;5.90;;;;;;;6.00;100.00;103820.00;5092603;28;20085;-88
2021/12/18 08:42:15;;;;;;;11.40;5.57;;;;;;;6.04;100.00;103819.19;5078512;28;20073;-88
2021/12/18 08:44:40;;;;;;;12.43;5.97;;;;;;;6.03;100.00;103809.47;5102518;28;20027;-88
2021/12/18 08:47:06;;;;;;;16.52;8.02;;;;;;;6.02;100.00;103810.34;5088331;28;20055;-88
2021/12/18 08:49:32;;;;;;;14.40;7.25;;;;;;;6.12;100.00;103814.91;5108527;28;20031;-87
2021/12/18 08:51:57;;;;;;;11.43;5.93;;;;;;;6.16;100.00;103816.72;5089116;28;20019;-86
2021/12/18 08:54:25;;;;;;;9.48;5.38;;;;;;;6.20;100.00;103822.97;5097285;28;20077;-89
2021/12/18 08:56:50;;;;;;;10.57;4.68;;;;;;;6.22;100.00;103821.22;5093107;28;20174;-87
2021/12/18 08:59:15;;;;;;;8.70;4.25;;;;;;;6.24;100.00;103822.13;5106334;28;20486;-87
2021/12/18 09:01:41;;;;;;;12.25;4.88;;;;;;;6.21;100.00;103822.09;5089828;28;20307;-88
2021/12/18 09:04:06;;;;;;;8.23;4.10;;;;;;;6.24;100.00;103819.50;5102915;28;20404;-88
2021/12/18 09:06:32;;;;;;;8.80;4.25;;;;;;;6.29;100.00;103822.19;5088489;28;20116;-87
2021/12/18 09:08:57;;;;;;;10.07;4.45;;;;;;;6.32;100.00;103825.78;5087700;28;20032;-87
2021/12/18 09:11:22;;;;;;;9.75;4.45;;;;;;;6.33;100.00;103829.31;5088415;28;20079;-87
2021/12/18 09:13:47;;;;;;;8.88;4.22;;;;;;;6.32;100.00;103831.06;5107753;28;20023;-86
2021/12/18 09:16:13;;;;;;;9.65;4.47;;;;;;;6.26;100.00;103817.75;5106508;28;20020;-87
2021/12/18 09:18:38;;;;;;;11.05;5.18;;;;;;;6.28;100.00;103829.25;5108329;28;20034;-87
2021/12/18 09:21:04;;;;;;;8.40;4.35;;;;;;;6.27;100.00;103818.63;5104668;28;20028;-87
2021/12/18 09:23:30;;;;;;;11.10;4.88;;;;;;;6.27;100.00;103830.13;5107325;28;20527;-87
2021/12/18 09:25:55;;;;;;;8.45;4.00;;;;;;;6.24;100.00;103816.84;5103777;28;20161;-87
2021/12/18 09:28:21;;;;;;;10.70;5.10;;;;;;;6.28;100.00;103823.97;5087573;28;20028;-87
2021/12/18 09:30:46;;;;;;;10.35;4.50;;;;;;;6.32;100.00;103825.78;5087874;28;20028;-87
2021/12/18 09:33:13;;;;;;;10.90;5.00;;;;;;;6.34;100.00;103823.16;5104088;28;20027;-87
2021/12/18 09:35:39;;;;;;;9.52;4.55;;;;;;;6.34;100.00;103820.50;5108243;28;20015;-87
2021/12/18 09:38:04;;;;;;;11.65;5.20;;;;;;;6.32;100.00;103828.44;5107836;28;20051;-87
2021/12/18 09:40:30;;;;;;;9.70;4.72;;;;;;;6.29;100.00;103825.72;5107917;28;20104;-87
2021/12/18 09:42:56;;;;;;;9.65;4.35;;;;;;;6.31;100.00;103825.75;5087767;28;20035;-87
2021/12/18 09:45:23;;;;;;;11.05;5.43;;;;;;;6.34;100.00;103831.97;5086936;28;20124;-87
2021/12/18 09:47:48;;;;;;;9.88;4.65;;;;;;;6.31;100.00;103821.38;5087595;28;20385;-86
2021/12/18 09:50:17;;;;;;;9.30;4.78;;;;;;;6.36;100.00;103818.78;5087487;28;20138;-86
2021/12/18 09:52:42;;;;;;;7.82;3.88;;;;;;;6.33;100.00;103813.44;5101673;28;20057;-86
2021/12/18 09:55:09;;;;;;;9.25;4.25;;;;;;;6.31;100.00;103810.78;5088871;28;20034;-87
2021/12/18 09:57:35;;;;;;;7.00;3.55;;;;;;;6.35;100.00;103811.69;5108176;28;20380;-87
2021/12/18 10:00:01;;;;;;;9.98;4.35;;;;;;;6.36;100.00;103814.38;5107629;28;20035;-87
2021/12/18 10:02:26;;;;;;;8.57;4.25;;;;;;;6.40;100.00;103815.31;5106540;28;20039;-87
2021/12/18 10:04:52;;;;;;;9.30;4.35;;;;;;;6.40;100.00;103808.25;5112211;28;20110;-87
2021/12/18 10:07:25;;;;;;;10.10;4.80;;;;;;;6.43;100.00;103805.63;5111699;28;20024;-87
2021/12/18 10:09:56;;;;;;;10.07;4.80;;;;;;;6.46;100.00;103803.03;5101056;28;20074;-87
2021/12/18 10:12:24;;;;;;;10.55;4.85;;;;;;;6.49;100.00;103807.50;5102024;28;20036;-87
2021/12/18 10:14:53;;;;;;;9.90;5.03;;;;;;;6.52;100.00;103807.56;5111905;28;20140;-87
2021/12/18 10:17:31;;;;;;;12.65;5.35;;;;;;;6.56;100.00;103798.75;5111660;28;20023;-87
2021/12/18 10:20:21;;;;;;;11.60;4.63;;;;;;;6.61;100.00;103797.06;5111574;28;20024;-87
2021/12/18 10:22:49;;;;;;;10.25;4.90;;;;;;;6.64;100.00;103793.56;5108378;28;20049;-87
2021/12/18 10:25:43;;;;;;;12.43;5.53;;;;;;;6.67;100.00;103791.84;5111160;28;20035;-87
2021/12/18 10:28:16;;;;;;;11.82;5.43;;;;;;;6.68;100.00;103788.31;5108399;28;20042;-87
2021/12/18 10:30:54;;;;;;;10.00;5.28;;;;;;;6.65;100.00;103784.78;5109662;28;20035;-87
2021/12/18 10:33:25;;;;;;;10.90;4.88;;;;;;;6.58;100.00;103777.63;5110376;28;20323;-87
2021/12/18 10:35:53;;;;;;;11.25;5.07;;;;;;;6.63;100.00;103789.16;5111752;28;20031;-87
2021/12/18 10:38:46;;;;;;;10.88;5.70;;;;;;;6.64;100.00;103789.16;5110969;28;20213;-87
2021/12/18 10:41:28;;;;;;;10.55;5.28;;;;;;;6.56;100.00;103785.50;5108422;28;20110;-87
2021/12/18 10:44:12;;;;;;;10.40;5.00;;;;;;;6.58;100.00;103789.09;5111319;28;20388;-88
2021/12/18 10:46:39;;;;;;;7.78;4.30;;;;;;;6.59;100.00;103787.31;5110540;28;20425;-88
2021/12/18 10:49:06;;;;;;;8.82;3.85;;;;;;;6.56;100.00;103787.28;5111062;28;20039;-88
2021/12/18 10:51:33;;;;;;;4.75;3.13;;;;;;;6.56;100.00;103787.28;5108908;28;20031;-88
2021/12/18 10:54:00;;;;;;;6.18;3.20;;;;;;;6.57;100.00;103771.44;5111031;28;20019;-87
2021/12/18 10:56:37;;;;;;;5.65;3.28;;;;;;;6.67;100.00;103781.25;5111381;28;20019;-87
2021/12/18 10:59:04;;;;;;;5.90;3.65;;;;;;;6.65;100.00;103771.53;5111346;28;20028;-87
2021/12/18 11:01:30;;;;;;;5.65;3.42;;;;;;;6.70;100.00;103777.78;5087033;28;20445;-87
2021/12/18 11:03:55;;;;;;;6.07;3.65;;;;;;;6.68;100.00;103769.78;5089841;28;20107;-87
2021/12/18 11:06:26;;;;;;;9.73;3.63;;;;;;;6.74;100.00;103782.22;5090402;28;20036;-87
2021/12/18 11:09:04;;;;;;;5.68;3.55;;;;;;;6.73;100.00;103770.75;5077377;28;20423;-86
2021/12/18 11:14:00;;;;;;;6.38;3.75;;;;;;;6.72;100.00;103778.66;5089677;28;20063;-86
2021/12/18 11:16:27;;;;;;;6.07;3.50;;;;;;;6.71;100.00;103774.25;5090344;28;20070;-86
2021/12/18 11:18:54;;;;;;;6.90;4.00;;;;;;;6.65;100.00;103777.72;5089794;28;20056;-86
2021/12/18 11:21:19;;;;;;;6.38;4.38;;;;;;;6.68;100.00;103783.03;5087824;28;20016;-86
2021/12/18 11:23:53;;;;;;;7.32;4.35;;;;;;;6.67;100.00;103777.72;5091052;28;20255;-88
2021/12/18 11:26:21;;;;;;;7.78;4.20;;;;;;;6.65;100.00;103771.53;5091420;28;20258;-86
2021/12/18 11:28:50;;;;;;;7.03;4.22;;;;;;;6.70;100.00;103776.00;5090530;28;20024;-86
2021/12/18 11:31:16;;;;;;;8.80;4.85;;;;;;;6.73;100.00;103772.53;5086406;28;20394;-86
2021/12/18 11:33:41;;;;;;;9.18;5.38;;;;;;;6.69;100.00;103770.72;5090348;28;20028;-86
2021/12/18 11:36:08;;;;;;;11.23;5.68;;;;;;;6.67;100.00;103767.13;5088903;28;20035;-87
2021/12/18 11:38:35;;;;;;;8.73;5.35;;;;;;;6.62;100.00;103766.19;5092407;28;20024;-88
2021/12/18 11:41:01;;;;;;;11.52;5.85;;;;;;;6.61;100.00;103764.44;5089768;28;20475;-88
2021/12/18 11:43:42;;;;;;;9.45;5.75;;;;;;;6.58;100.00;103746.75;5092840;28;20052;-88
2021/12/18 11:46:33;;;;;;;12.57;6.88;;;;;;;6.56;100.00;103760.81;5089918;28;20035;-87
2021/12/18 11:49:04;;;;;;;12.00;6.10;;;;;;;6.45;100.00;103758.94;5089815;28;20354;-87
2021/12/18 11:51:30;;;;;;;11.32;6.15;;;;;;;6.44;100.00;103751.88;5086513;28;20040;-88
2021/12/18 11:53:56;;;;;;;11.88;5.97;;;;;;;6.44;100.00;103751.88;5088433;28;20484;-87
2021/12/18 11:56:22;;;;;;;11.50;6.15;;;;;;;6.45;100.00;103747.47;5090118;28;20047;-87